»·PEaware :: FDX3171 KPDX-KSEA

FDX3171 :: KPDX-KSEA

FLIGHT INFORMATION

Flight Status: Arrived
Operator:
Federal Express
More flights by this operator :: More flights under this callsign
Pilot: David C. (16084)
Aircraft: BEECH AIRCRAFT BEECH AIRLINER
(B190)
More flights by this aircraft type
Origin: KPDX Portland Intl
United States
Destination: KSEA Seattle-Tacoma Intl
United States
More flights between these airports :: More routes between these airports
Route: COUGA KRIEG HAWKZ6
File this flight plan on PilotEdge
Remarks:
Altitude:
(Current/Filed)
14,000ft
Speed:
(Current/Filed)
261kts
Departed: 30-Dec-17 07:30 PM
Arrived: 30-Dec-17 08:06 PM
Distance/Time
Traveled:
113nm/0:36
Distance/Time
To Go:
Arrived

Flight Plot

Page will automatically refresh every two minutes.

Flight plan parsing failed; only flown route is shown


Map Options




Map Legend


Flown Route
Filed Route
Departure Airport
Arrival Airport
Navaid (VOR, NDB)
Fix

Horizontal Profiles

Position Reports

Time Latitude Longitude Heading Altitude Ground
Speed
30-Dec-17 19:15 45.580548 -122.612118 88 34ft 0kts
30-Dec-17 19:16 45.580548 -122.612118 88 34ft 0kts
30-Dec-17 19:17 45.580548 -122.612118 88 34ft 0kts
30-Dec-17 19:18 45.580548 -122.612118 88 34ft 0kts
30-Dec-17 19:19 45.580548 -122.612118 88 34ft 0kts
30-Dec-17 19:20 45.580548 -122.612118 88 34ft 0kts
30-Dec-17 19:21 45.580548 -122.612118 88 34ft 0kts
30-Dec-17 19:22 45.580548 -122.612118 88 34ft 0kts
30-Dec-17 19:23 45.580548 -122.612118 88 34ft 0kts
30-Dec-17 19:24 45.580548 -122.612118 88 34ft 0kts
30-Dec-17 19:25 45.580548 -122.612118 88 34ft 0kts
30-Dec-17 19:26 45.580548 -122.612118 88 34ft 0kts
30-Dec-17 19:27 45.580548 -122.612118 88 34ft 0kts
30-Dec-17 19:28 45.580548 -122.612118 88 34ft 0kts
30-Dec-17 19:29 45.581220 -122.611349 334 34ft 13kts
30-Dec-17 19:30 45.585698 -122.609935 44 34ft 24kts
30-Dec-17 19:31 45.586506 -122.602510 117 34ft 24kts
30-Dec-17 19:32 45.582528 -122.592289 119 34ft 26kts
30-Dec-17 19:33 45.579840 -122.584846 66 34ft 0kts
30-Dec-17 19:34 45.579840 -122.584846 66 34ft 0kts
30-Dec-17 19:35 45.580410 -122.584459 348 34ft 16kts
30-Dec-17 19:36 45.595208 -122.623351 297 1345ft 157kts
30-Dec-17 19:37 45.616235 -122.679724 298 3765ft 184kts
30-Dec-17 19:38 45.655330 -122.715657 2 5660ft 179kts
30-Dec-17 19:39 45.702824 -122.711485 2 8357ft 165kts
30-Dec-17 19:40 45.747566 -122.707591 2 10828ft 165kts
30-Dec-17 19:41 45.793383 -122.703589 2 13285ft 166kts
30-Dec-17 19:42 45.846701 -122.698976 2 13989ft 229kts
30-Dec-17 19:43 45.914643 -122.693017 2 13977ft 254kts
30-Dec-17 19:44 45.985639 -122.686789 2 13978ft 257kts
30-Dec-17 19:45 46.057131 -122.680524 2 13982ft 258kts
30-Dec-17 19:46 46.128160 -122.684547 352 13989ft 258kts
30-Dec-17 19:47 46.199069 -122.698449 352 13988ft 258kts
30-Dec-17 19:48 46.270249 -122.712444 352 13988ft 258kts
30-Dec-17 19:49 46.341474 -122.722986 357 13986ft 259kts
30-Dec-17 19:50 46.413267 -122.725619 357 13987ft 258kts
30-Dec-17 19:51 46.473127 -122.727775 357 13990ft 258kts
30-Dec-17 19:52 46.555597 -122.730738 357 13994ft 258kts
30-Dec-17 19:53 46.614319 -122.732837 358 13192ft 242kts
30-Dec-17 19:54 46.678308 -122.735249 358 12005ft 215kts
30-Dec-17 19:55 46.755142 -122.738011 358 11973ft 256kts
30-Dec-17 19:56 46.808065 -122.710110 35 11893ft 261kts
30-Dec-17 19:57 46.862330 -122.643585 40 11687ft 256kts
30-Dec-17 19:58 46.910740 -122.576983 41 9441ft 234kts
30-Dec-17 19:59 46.954962 -122.510472 43 7247ft 228kts
30-Dec-17 20:00 47.000984 -122.452911 28 5902ft 206kts
30-Dec-17 20:01 47.047439 -122.413693 27 5970ft 186kts
30-Dec-17 20:02 47.089902 -122.377628 27 5982ft 173kts
30-Dec-17 20:03 47.129308 -122.344183 28 5013ft 185kts
30-Dec-17 20:04 47.171710 -122.311636 5 4047ft 172kts
30-Dec-17 20:05 47.217653 -122.310100 0 3975ft 161kts
30-Dec-17 20:06 47.260760 -122.309517 0 3543ft 149kts
30-Dec-17 20:07 47.301540 -122.309141 0 2813ft 147kts
30-Dec-17 20:08 47.342211 -122.308808 0 2068ft 146kts
30-Dec-17 20:09 47.376975 -122.308504 1 1437ft 112kts
30-Dec-17 20:10 47.408326 -122.308232 0 888ft 116kts
30-Dec-17 20:11 47.439307 -122.308186 2 441ft 106kts
30-Dec-17 20:12 47.452418 -122.306472 80 438ft 0kts
30-Dec-17 20:13 47.452519 -122.306279 27 438ft 8kts
30-Dec-17 20:14 47.457154 -122.303833 89 438ft 6kts
30-Dec-17 20:15 47.456386 -122.303463 178 438ft 0kts
30-Dec-17 20:16 47.456386 -122.303463 178 438ft 0kts
30-Dec-17 20:17 47.456387 -122.303463 178 438ft 0kts

Navigation Log

Ident Type
Flight plan parsing failed, navigation log unavailable